sensor_id;sensor_type;location;lat;lon;timestamp;P1;durP1;ratioP1;P2;durP2;ratioP2
18378;SDS011;27025;51.986;5.984;2023-10-31T00:01:35;1.77;;;1.37;;
18378;SDS011;27025;51.986;5.984;2023-10-31T00:04:03;1.80;;;1.60;;
18378;SDS011;27025;51.986;5.984;2023-10-31T00:06:32;1.77;;;1.20;;
18378;SDS011;27025;51.986;5.984;2023-10-31T00:09:11;3.43;;;1.40;;
18378;SDS011;27025;51.986;5.984;2023-10-31T00:11:37;2.87;;;1.27;;
18378;SDS011;27025;51.986;5.984;2023-10-31T00:14:03;2.37;;;1.10;;
18378;SDS011;27025;51.986;5.984;2023-10-31T00:16:30;3.80;;;1.40;;
18378;SDS011;27025;51.986;5.984;2023-10-31T00:18:56;2.73;;;1.20;;
18378;SDS011;27025;51.986;5.984;2023-10-31T00:21:22;3.87;;;1.17;;
18378;SDS011;27025;51.986;5.984;2023-10-31T00:23:50;3.30;;;1.20;;
18378;SDS011;27025;51.986;5.984;2023-10-31T00:26:16;4.07;;;1.10;;
18378;SDS011;27025;51.986;5.984;2023-10-31T00:28:42;2.40;;;1.20;;
18378;SDS011;27025;51.986;5.984;2023-10-31T00:31:08;3.53;;;1.20;;
18378;SDS011;27025;51.986;5.984;2023-10-31T00:33:36;2.30;;;1.10;;
18378;SDS011;27025;51.986;5.984;2023-10-31T00:36:03;4.17;;;1.23;;
18378;SDS011;27025;51.986;5.984;2023-10-31T00:38:31;2.90;;;1.27;;
18378;SDS011;27025;51.986;5.984;2023-10-31T00:41:00;3.97;;;1.67;;
18378;SDS011;27025;51.986;5.984;2023-10-31T00:43:29;2.93;;;1.47;;
18378;SDS011;27025;51.986;5.984;2023-10-31T00:45:55;3.90;;;1.57;;
18378;SDS011;27025;51.986;5.984;2023-10-31T00:48:21;3.23;;;2.10;;
18378;SDS011;27025;51.986;5.984;2023-10-31T00:50:53;3.87;;;2.00;;
18378;SDS011;27025;51.986;5.984;2023-10-31T00:53:19;3.90;;;2.00;;
18378;SDS011;27025;51.986;5.984;2023-10-31T00:55:45;5.93;;;2.30;;
18378;SDS011;27025;51.986;5.984;2023-10-31T00:58:14;4.80;;;2.07;;
18378;SDS011;27025;51.986;5.984;2023-10-31T01:00:47;4.53;;;2.10;;
18378;SDS011;27025;51.986;5.984;2023-10-31T01:03:19;3.73;;;2.00;;
18378;SDS011;27025;51.986;5.984;2023-10-31T01:05:53;3.93;;;2.03;;
18378;SDS011;27025;51.986;5.984;2023-10-31T01:08:22;4.60;;;2.00;;
18378;SDS011;27025;51.986;5.984;2023-10-31T01:13:39;3.63;;;2.50;;
18378;SDS011;27025;51.986;5.984;2023-10-31T01:16:10;4.20;;;2.70;;
18378;SDS011;27025;51.986;5.984;2023-10-31T01:18:36;5.03;;;3.30;;
18378;SDS011;27025;51.986;5.984;2023-10-31T01:21:02;6.23;;;3.60;;
18378;SDS011;27025;51.986;5.984;2023-10-31T01:23:31;7.50;;;3.90;;
18378;SDS011;27025;51.986;5.984;2023-10-31T01:32:10;9.57;;;6.50;;
18378;SDS011;27025;51.986;5.984;2023-10-31T01:34:37;9.83;;;7.00;;
18378;SDS011;27025;51.986;5.984;2023-10-31T01:37:06;11.40;;;8.23;;
18378;SDS011;27025;51.986;5.984;2023-10-31T01:42:30;14.30;;;8.47;;
18378;SDS011;27025;51.986;5.984;2023-10-31T01:44:59;15.87;;;10.50;;
18378;SDS011;27025;51.986;5.984;2023-10-31T01:53:48;17.00;;;14.47;;
18378;SDS011;27025;51.986;5.984;2023-10-31T01:56:14;19.97;;;14.77;;
18378;SDS011;27025;51.986;5.984;2023-10-31T02:01:43;18.00;;;13.80;;
18378;SDS011;27025;51.986;5.984;2023-10-31T02:04:12;16.60;;;13.27;;
18378;SDS011;27025;51.986;5.984;2023-10-31T02:06:49;19.13;;;14.10;;
18378;SDS011;27025;51.986;5.984;2023-10-31T02:09:21;20.63;;;14.60;;
18378;SDS011;27025;51.986;5.984;2023-10-31T02:11:52;17.00;;;15.00;;
18378;SDS011;27025;51.986;5.984;2023-10-31T02:14:18;20.42;;;16.63;;
18378;SDS011;27025;51.986;5.984;2023-10-31T02:16:50;21.80;;;18.67;;
18378;SDS011;27025;51.986;5.984;2023-10-31T02:19:25;22.23;;;18.58;;
18378;SDS011;27025;51.986;5.984;2023-10-31T02:21:59;23.47;;;16.93;;
18378;SDS011;27025;51.986;5.984;2023-10-31T02:24:46;22.50;;;16.80;;
18378;SDS011;27025;51.986;5.984;2023-10-31T02:27:12;21.13;;;16.27;;
18378;SDS011;27025;51.986;5.984;2023-10-31T02:29:58;22.13;;;16.87;;
18378;SDS011;27025;51.986;5.984;2023-10-31T02:32:27;22.40;;;17.07;;
18378;SDS011;27025;51.986;5.984;2023-10-31T02:34:56;22.30;;;16.27;;
18378;SDS011;27025;51.986;5.984;2023-10-31T02:37:27;22.73;;;14.90;;
18378;SDS011;27025;51.986;5.984;2023-10-31T02:39:56;22.93;;;17.10;;
18378;SDS011;27025;51.986;5.984;2023-10-31T02:42:27;19.47;;;16.00;;
18378;SDS011;27025;51.986;5.984;2023-10-31T02:45:00;20.17;;;16.83;;
18378;SDS011;27025;51.986;5.984;2023-10-31T02:47:28;22.73;;;16.43;;
18378;SDS011;27025;51.986;5.984;2023-10-31T02:49:57;18.90;;;15.87;;
18378;SDS011;27025;51.986;5.984;2023-10-31T02:52:29;21.57;;;15.37;;
18378;SDS011;27025;51.986;5.984;2023-10-31T02:55:02;19.47;;;15.47;;
18378;SDS011;27025;51.986;5.984;2023-10-31T02:57:34;23.47;;;15.13;;
18378;SDS011;27025;51.986;5.984;2023-10-31T03:00:03;20.57;;;15.60;;
18378;SDS011;27025;51.986;5.984;2023-10-31T03:02:29;19.93;;;15.73;;
18378;SDS011;27025;51.986;5.984;2023-10-31T03:05:06;18.30;;;16.07;;
18378;SDS011;27025;51.986;5.984;2023-10-31T03:07:33;24.20;;;16.80;;
18378;SDS011;27025;51.986;5.984;2023-10-31T03:10:25;21.10;;;17.30;;
18378;SDS011;27025;51.986;5.984;2023-10-31T03:13:00;19.63;;;15.13;;
18378;SDS011;27025;51.986;5.984;2023-10-31T03:18:31;21.50;;;16.50;;
18378;SDS011;27025;51.986;5.984;2023-10-31T03:21:00;20.63;;;16.00;;
18378;SDS011;27025;51.986;5.984;2023-10-31T03:23:28;18.03;;;14.83;;
18378;SDS011;27025;51.986;5.984;2023-10-31T03:25:57;17.47;;;15.60;;
18378;SDS011;27025;51.986;5.984;2023-10-31T03:31:10;18.30;;;15.90;;
18378;SDS011;27025;51.986;5.984;2023-10-31T03:33:54;20.17;;;16.97;;
18378;SDS011;27025;51.986;5.984;2023-10-31T03:36:20;22.43;;;17.40;;
18378;SDS011;27025;51.986;5.984;2023-10-31T03:38:46;23.67;;;18.67;;
18378;SDS011;27025;51.986;5.984;2023-10-31T03:41:18;22.53;;;18.63;;
18378;SDS011;27025;51.986;5.984;2023-10-31T03:43:54;20.53;;;17.40;;
18378;SDS011;27025;51.986;5.984;2023-10-31T03:46:39;21.50;;;18.87;;
18378;SDS011;27025;51.986;5.984;2023-10-31T03:52:02;22.47;;;18.57;;
18378;SDS011;27025;51.986;5.984;2023-10-31T03:54:31;21.87;;;18.40;;
18378;SDS011;27025;51.986;5.984;2023-10-31T03:59:36;22.20;;;18.57;;
18378;SDS011;27025;51.986;5.984;2023-10-31T04:23:59;12.60;;;10.23;;
18378;SDS011;27025;51.986;5.984;2023-10-31T04:32:39;13.43;;;9.63;;
18378;SDS011;27025;51.986;5.984;2023-10-31T04:35:31;12.43;;;9.70;;
18378;SDS011;27025;51.986;5.984;2023-10-31T04:38:00;10.83;;;9.10;;
18378;SDS011;27025;51.986;5.984;2023-10-31T04:40:32;12.10;;;8.67;;
18378;SDS011;27025;51.986;5.984;2023-10-31T04:43:00;11.80;;;9.47;;
18378;SDS011;27025;51.986;5.984;2023-10-31T04:45:26;8.80;;;7.90;;
18378;SDS011;27025;51.986;5.984;2023-10-31T04:48:00;12.20;;;7.70;;
18378;SDS011;27025;51.986;5.984;2023-10-31T04:56:26;10.23;;;7.07;;
18378;SDS011;27025;51.986;5.984;2023-10-31T04:58:52;10.87;;;6.97;;
18378;SDS011;27025;51.986;5.984;2023-10-31T05:01:32;8.70;;;6.63;;
18378;SDS011;27025;51.986;5.984;2023-10-31T05:04:15;6.90;;;5.90;;
18378;SDS011;27025;51.986;5.984;2023-10-31T05:06:44;11.03;;;6.40;;
18378;SDS011;27025;51.986;5.984;2023-10-31T05:09:16;8.90;;;6.60;;
18378;SDS011;27025;51.986;5.984;2023-10-31T05:20:36;8.60;;;6.73;;
18378;SDS011;27025;51.986;5.984;2023-10-31T05:23:04;7.77;;;6.97;;
18378;SDS011;27025;51.986;5.984;2023-10-31T05:25:38;9.25;;;7.60;;
18378;SDS011;27025;51.986;5.984;2023-10-31T05:28:28;9.43;;;6.80;;
18378;SDS011;27025;51.986;5.984;2023-10-31T05:34:29;10.60;;;7.73;;
18378;SDS011;27025;51.986;5.984;2023-10-31T05:37:04;9.90;;;7.77;;
18378;SDS011;27025;51.986;5.984;2023-10-31T05:39:42;11.50;;;8.50;;
18378;SDS011;27025;51.986;5.984;2023-10-31T05:42:19;11.57;;;9.13;;
18378;SDS011;27025;51.986;5.984;2023-10-31T05:44:46;12.33;;;9.73;;
18378;SDS011;27025;51.986;5.984;2023-10-31T05:47:23;14.73;;;9.87;;
18378;SDS011;27025;51.986;5.984;2023-10-31T05:49:52;17.37;;;10.40;;
18378;SDS011;27025;51.986;5.984;2023-10-31T05:52:27;12.93;;;11.30;;
18378;SDS011;27025;51.986;5.984;2023-10-31T05:54:59;17.37;;;12.90;;
18378;SDS011;27025;51.986;5.984;2023-10-31T06:00:39;13.70;;;12.00;;
18378;SDS011;27025;51.986;5.984;2023-10-31T06:03:08;16.00;;;11.47;;
18378;SDS011;27025;51.986;5.984;2023-10-31T06:05:40;13.40;;;10.43;;
18378;SDS011;27025;51.986;5.984;2023-10-31T06:08:09;12.43;;;10.13;;
18378;SDS011;27025;51.986;5.984;2023-10-31T06:10:41;13.57;;;9.60;;
18378;SDS011;27025;51.986;5.984;2023-10-31T06:13:15;11.53;;;9.17;;
18378;SDS011;27025;51.986;5.984;2023-10-31T06:15:46;10.90;;;8.60;;
18378;SDS011;27025;51.986;5.984;2023-10-31T06:18:17;13.47;;;7.63;;
18378;SDS011;27025;51.986;5.984;2023-10-31T06:20:48;10.17;;;7.53;;
18378;SDS011;27025;51.986;5.984;2023-10-31T06:23:18;8.37;;;6.60;;
18378;SDS011;27025;51.986;5.984;2023-10-31T06:25:46;8.93;;;7.17;;
18378;SDS011;27025;51.986;5.984;2023-10-31T06:31:14;8.87;;;6.30;;
18378;SDS011;27025;51.986;5.984;2023-10-31T06:33:51;7.87;;;5.80;;
18378;SDS011;27025;51.986;5.984;2023-10-31T06:42:45;8.93;;;5.50;;
18378;SDS011;27025;51.986;5.984;2023-10-31T06:53:59;6.27;;;5.03;;
18378;SDS011;27025;51.986;5.984;2023-10-31T06:56:32;7.93;;;4.90;;
18378;SDS011;27025;51.986;5.984;2023-10-31T06:59:04;9.17;;;6.47;;
18378;SDS011;27025;51.986;5.984;2023-10-31T07:01:30;8.87;;;6.27;;
18378;SDS011;27025;51.986;5.984;2023-10-31T07:03:57;9.80;;;7.43;;
18378;SDS011;27025;51.986;5.984;2023-10-31T07:06:23;12.93;;;9.00;;
18378;SDS011;27025;51.986;5.984;2023-10-31T07:08:56;14.20;;;9.00;;
18378;SDS011;27025;51.986;5.984;2023-10-31T07:11:30;15.53;;;9.33;;
18378;SDS011;27025;51.986;5.984;2023-10-31T07:14:01;12.80;;;9.47;;
18378;SDS011;27025;51.986;5.984;2023-10-31T07:16:31;14.90;;;10.53;;
18378;SDS011;27025;51.986;5.984;2023-10-31T07:18:57;16.17;;;12.85;;
18378;SDS011;27025;51.986;5.984;2023-10-31T07:21:23;15.77;;;11.00;;
18378;SDS011;27025;51.986;5.984;2023-10-31T07:23:50;16.37;;;11.87;;
18378;SDS011;27025;51.986;5.984;2023-10-31T07:26:19;15.17;;;11.07;;
18378;SDS011;27025;51.986;5.984;2023-10-31T07:28:45;17.20;;;12.00;;
18378;SDS011;27025;51.986;5.984;2023-10-31T07:31:12;15.57;;;12.93;;
18378;SDS011;27025;51.986;5.984;2023-10-31T07:33:41;16.13;;;12.53;;
18378;SDS011;27025;51.986;5.984;2023-10-31T07:36:09;18.07;;;14.17;;
18378;SDS011;27025;51.986;5.984;2023-10-31T07:38:35;16.17;;;13.97;;
18378;SDS011;27025;51.986;5.984;2023-10-31T07:41:01;16.90;;;14.63;;
18378;SDS011;27025;51.986;5.984;2023-10-31T07:43:29;17.60;;;15.70;;
18378;SDS011;27025;51.986;5.984;2023-10-31T07:45:56;16.17;;;14.47;;
18378;SDS011;27025;51.986;5.984;2023-10-31T07:48:24;19.67;;;16.57;;
18378;SDS011;27025;51.986;5.984;2023-10-31T07:50:53;19.40;;;16.40;;
18378;SDS011;27025;51.986;5.984;2023-10-31T07:53:20;18.00;;;15.43;;
18378;SDS011;27025;51.986;5.984;2023-10-31T07:55:46;20.65;;;18.55;;
18378;SDS011;27025;51.986;5.984;2023-10-31T07:58:12;19.03;;;16.33;;
18378;SDS011;27025;51.986;5.984;2023-10-31T08:00:38;17.97;;;16.10;;
18378;SDS011;27025;51.986;5.984;2023-10-31T08:03:07;18.43;;;16.50;;
18378;SDS011;27025;51.986;5.984;2023-10-31T08:05:33;18.37;;;16.40;;
18378;SDS011;27025;51.986;5.984;2023-10-31T08:07:59;19.07;;;17.17;;
18378;SDS011;27025;51.986;5.984;2023-10-31T08:10:25;19.93;;;17.93;;
18378;SDS011;27025;51.986;5.984;2023-10-31T08:12:52;22.60;;;20.38;;
18378;SDS011;27025;51.986;5.984;2023-10-31T08:15:18;20.63;;;18.37;;
18378;SDS011;27025;51.986;5.984;2023-10-31T08:17:44;19.27;;;17.27;;
18378;SDS011;27025;51.986;5.984;2023-10-31T08:20:10;19.27;;;17.27;;
18378;SDS011;27025;51.986;5.984;2023-10-31T08:22:38;19.00;;;17.00;;
18378;SDS011;27025;51.986;5.984;2023-10-31T08:25:04;18.77;;;16.53;;
18378;SDS011;27025;51.986;5.984;2023-10-31T08:27:30;18.43;;;16.63;;
18378;SDS011;27025;51.986;5.984;2023-10-31T08:29:56;17.33;;;15.73;;
18378;SDS011;27025;51.986;5.984;2023-10-31T08:32:23;15.97;;;14.47;;
18378;SDS011;27025;51.986;5.984;2023-10-31T08:34:49;16.98;;;15.30;;
18378;SDS011;27025;51.986;5.984;2023-10-31T08:37:15;15.10;;;13.60;;
18378;SDS011;27025;51.986;5.984;2023-10-31T08:39:41;14.07;;;12.57;;
18378;SDS011;27025;51.986;5.984;2023-10-31T08:42:08;13.07;;;11.88;;
18378;SDS011;27025;51.986;5.984;2023-10-31T08:44:34;14.00;;;12.70;;
18378;SDS011;27025;51.986;5.984;2023-10-31T08:47:02;14.13;;;11.97;;
18378;SDS011;27025;51.986;5.984;2023-10-31T08:49:28;12.03;;;10.83;;
18378;SDS011;27025;51.986;5.984;2023-10-31T08:51:55;13.53;;;10.57;;
18378;SDS011;27025;51.986;5.984;2023-10-31T08:54:21;11.90;;;10.23;;
18378;SDS011;27025;51.986;5.984;2023-10-31T08:56:47;12.57;;;10.40;;
18378;SDS011;27025;51.986;5.984;2023-10-31T08:59:13;11.90;;;10.33;;
18378;SDS011;27025;51.986;5.984;2023-10-31T09:01:38;11.70;;;9.70;;
18378;SDS011;27025;51.986;5.984;2023-10-31T09:04:05;11.67;;;9.17;;
18378;SDS011;27025;51.986;5.984;2023-10-31T09:06:31;11.33;;;9.10;;
18378;SDS011;27025;51.986;5.984;2023-10-31T09:08:57;9.93;;;8.57;;
18378;SDS011;27025;51.986;5.984;2023-10-31T09:11:23;11.30;;;7.90;;
18378;SDS011;27025;51.986;5.984;2023-10-31T09:13:49;11.20;;;7.60;;
18378;SDS011;27025;51.986;5.984;2023-10-31T09:16:15;8.47;;;6.90;;
18378;SDS011;27025;51.986;5.984;2023-10-31T09:18:41;8.13;;;6.30;;
18378;SDS011;27025;51.986;5.984;2023-10-31T09:21:08;9.97;;;6.97;;
18378;SDS011;27025;51.986;5.984;2023-10-31T09:23:35;8.87;;;6.47;;
18378;SDS011;27025;51.986;5.984;2023-10-31T09:26:01;10.00;;;6.70;;
18378;SDS011;27025;51.986;5.984;2023-10-31T09:28:27;9.33;;;6.73;;
18378;SDS011;27025;51.986;5.984;2023-10-31T09:30:53;9.43;;;6.20;;
18378;SDS011;27025;51.986;5.984;2023-10-31T09:33:19;10.27;;;6.67;;
18378;SDS011;27025;51.986;5.984;2023-10-31T09:35:45;11.03;;;6.83;;
18378;SDS011;27025;51.986;5.984;2023-10-31T09:38:11;9.80;;;7.03;;
18378;SDS011;27025;51.986;5.984;2023-10-31T09:40:41;10.03;;;6.80;;
18378;SDS011;27025;51.986;5.984;2023-10-31T09:43:07;8.87;;;7.17;;
18378;SDS011;27025;51.986;5.984;2023-10-31T09:45:33;11.17;;;7.23;;
18378;SDS011;27025;51.986;5.984;2023-10-31T09:47:59;10.73;;;7.40;;
18378;SDS011;27025;51.986;5.984;2023-10-31T09:50:27;9.67;;;6.97;;
18378;SDS011;27025;51.986;5.984;2023-10-31T09:52:54;10.47;;;7.17;;
18378;SDS011;27025;51.986;5.984;2023-10-31T09:55:21;13.30;;;7.10;;
18378;SDS011;27025;51.986;5.984;2023-10-31T09:57:49;11.10;;;6.50;;
18378;SDS011;27025;51.986;5.984;2023-10-31T10:00:16;9.40;;;6.33;;
18378;SDS011;27025;51.986;5.984;2023-10-31T10:02:42;7.93;;;5.43;;
18378;SDS011;27025;51.986;5.984;2023-10-31T10:05:11;6.33;;;5.70;;
18378;SDS011;27025;51.986;5.984;2023-10-31T10:07:41;9.63;;;5.60;;
18378;SDS011;27025;51.986;5.984;2023-10-31T10:10:12;9.57;;;5.00;;
18378;SDS011;27025;51.986;5.984;2023-10-31T10:12:40;9.97;;;6.00;;
18378;SDS011;27025;51.986;5.984;2023-10-31T10:15:07;9.27;;;6.00;;
18378;SDS011;27025;51.986;5.984;2023-10-31T10:17:36;10.40;;;5.60;;
18378;SDS011;27025;51.986;5.984;2023-10-31T10:20:05;8.87;;;5.70;;
18378;SDS011;27025;51.986;5.984;2023-10-31T10:22:35;10.30;;;6.20;;
18378;SDS011;27025;51.986;5.984;2023-10-31T10:25:03;7.63;;;5.97;;
18378;SDS011;27025;51.986;5.984;2023-10-31T10:27:29;7.87;;;6.40;;
18378;SDS011;27025;51.986;5.984;2023-10-31T10:29:55;7.90;;;5.70;;
18378;SDS011;27025;51.986;5.984;2023-10-31T10:32:21;7.47;;;5.90;;
18378;SDS011;27025;51.986;5.984;2023-10-31T10:34:48;8.33;;;6.50;;
18378;SDS011;27025;51.986;5.984;2023-10-31T10:37:14;10.37;;;5.57;;
18378;SDS011;27025;51.986;5.984;2023-10-31T10:39:40;6.90;;;5.40;;
18378;SDS011;27025;51.986;5.984;2023-10-31T10:42:09;8.57;;;5.50;;
18378;SDS011;27025;51.986;5.984;2023-10-31T10:44:38;6.97;;;4.97;;
18378;SDS011;27025;51.986;5.984;2023-10-31T10:47:07;7.77;;;4.90;;
18378;SDS011;27025;51.986;5.984;2023-10-31T10:49:35;8.70;;;5.03;;
18378;SDS011;27025;51.986;5.984;2023-10-31T10:52:04;8.17;;;5.60;;
18378;SDS011;27025;51.986;5.984;2023-10-31T10:54:57;9.63;;;4.90;;
18378;SDS011;27025;51.986;5.984;2023-10-31T10:57:32;7.77;;;5.33;;
18378;SDS011;27025;51.986;5.984;2023-10-31T11:00:03;6.47;;;5.20;;
18378;SDS011;27025;51.986;5.984;2023-10-31T11:02:29;8.03;;;4.97;;
18378;SDS011;27025;51.986;5.984;2023-10-31T11:04:56;8.43;;;4.63;;
18378;SDS011;27025;51.986;5.984;2023-10-31T11:07:23;7.67;;;4.53;;
18378;SDS011;27025;51.986;5.984;2023-10-31T11:09:50;9.63;;;5.13;;
18378;SDS011;27025;51.986;5.984;2023-10-31T11:12:16;11.23;;;4.73;;
18378;SDS011;27025;51.986;5.984;2023-10-31T11:14:44;11.83;;;4.80;;
18378;SDS011;27025;51.986;5.984;2023-10-31T11:17:14;7.63;;;4.23;;
18378;SDS011;27025;51.986;5.984;2023-10-31T11:19:45;7.23;;;5.00;;
18378;SDS011;27025;51.986;5.984;2023-10-31T11:22:11;7.90;;;5.33;;
18378;SDS011;27025;51.986;5.984;2023-10-31T11:24:37;8.50;;;4.97;;
18378;SDS011;27025;51.986;5.984;2023-10-31T11:27:04;8.90;;;5.30;;
18378;SDS011;27025;51.986;5.984;2023-10-31T11:29:31;10.93;;;5.87;;
18378;SDS011;27025;51.986;5.984;2023-10-31T11:31:57;9.47;;;5.93;;
18378;SDS011;27025;51.986;5.984;2023-10-31T11:34:26;10.30;;;5.93;;
18378;SDS011;27025;51.986;5.984;2023-10-31T11:36:53;14.90;;;9.73;;
18378;SDS011;27025;51.986;5.984;2023-10-31T11:39:19;15.47;;;13.90;;
18378;SDS011;27025;51.986;5.984;2023-10-31T11:41:50;16.80;;;13.73;;
18378;SDS011;27025;51.986;5.984;2023-10-31T11:44:19;18.67;;;16.70;;
18378;SDS011;27025;51.986;5.984;2023-10-31T11:46:47;19.87;;;17.73;;
18378;SDS011;27025;51.986;5.984;2023-10-31T11:49:17;19.57;;;17.57;;
18378;SDS011;27025;51.986;5.984;2023-10-31T11:51:46;21.77;;;17.13;;
18378;SDS011;27025;51.986;5.984;2023-10-31T11:54:15;19.97;;;17.97;;
18378;SDS011;27025;51.986;5.984;2023-10-31T11:56:42;19.97;;;17.97;;
18378;SDS011;27025;51.986;5.984;2023-10-31T11:59:17;19.63;;;17.60;;
18378;SDS011;27025;51.986;5.984;2023-10-31T12:01:46;20.83;;;18.33;;
18378;SDS011;27025;51.986;5.984;2023-10-31T12:04:22;18.47;;;16.57;;
18378;SDS011;27025;51.986;5.984;2023-10-31T12:06:56;19.30;;;16.83;;
18378;SDS011;27025;51.986;5.984;2023-10-31T12:09:22;23.73;;;19.47;;
18378;SDS011;27025;51.986;5.984;2023-10-31T12:11:48;21.40;;;19.10;;
18378;SDS011;27025;51.986;5.984;2023-10-31T12:14:17;20.33;;;18.17;;
18378;SDS011;27025;51.986;5.984;2023-10-31T12:16:44;20.13;;;18.10;;
18378;SDS011;27025;51.986;5.984;2023-10-31T12:19:11;20.37;;;17.10;;
18378;SDS011;27025;51.986;5.984;2023-10-31T12:24:18;18.97;;;16.87;;
18378;SDS011;27025;51.986;5.984;2023-10-31T12:26:44;19.63;;;16.70;;
18378;SDS011;27025;51.986;5.984;2023-10-31T12:29:14;20.93;;;18.43;;
18378;SDS011;27025;51.986;5.984;2023-10-31T12:31:51;23.93;;;19.83;;
18378;SDS011;27025;51.986;5.984;2023-10-31T12:34:18;22.10;;;18.77;;
18378;SDS011;27025;51.986;5.984;2023-10-31T12:39:34;22.03;;;18.03;;
18378;SDS011;27025;51.986;5.984;2023-10-31T12:48:00;20.83;;;17.73;;
18378;SDS011;27025;51.986;5.984;2023-10-31T12:50:27;23.77;;;17.07;;
18378;SDS011;27025;51.986;5.984;2023-10-31T12:52:54;23.40;;;18.23;;
18378;SDS011;27025;51.986;5.984;2023-10-31T12:55:24;27.77;;;20.03;;
18378;SDS011;27025;51.986;5.984;2023-10-31T12:57:51;27.10;;;20.63;;
18378;SDS011;27025;51.986;5.984;2023-10-31T13:00:17;27.63;;;19.53;;
18378;SDS011;27025;51.986;5.984;2023-10-31T13:02:49;26.50;;;19.57;;
18378;SDS011;27025;51.986;5.984;2023-10-31T13:05:15;29.03;;;19.73;;
18378;SDS011;27025;51.986;5.984;2023-10-31T13:07:51;23.50;;;18.70;;
18378;SDS011;27025;51.986;5.984;2023-10-31T13:10:20;27.00;;;19.47;;
18378;SDS011;27025;51.986;5.984;2023-10-31T13:12:46;25.90;;;19.57;;
18378;SDS011;27025;51.986;5.984;2023-10-31T13:15:15;27.50;;;19.37;;
18378;SDS011;27025;51.986;5.984;2023-10-31T13:17:44;32.23;;;19.87;;
18378;SDS011;27025;51.986;5.984;2023-10-31T13:20:11;27.57;;;21.20;;
18378;SDS011;27025;51.986;5.984;2023-10-31T13:22:37;27.37;;;20.70;;
18378;SDS011;27025;51.986;5.984;2023-10-31T13:25:07;29.73;;;21.83;;
18378;SDS011;27025;51.986;5.984;2023-10-31T13:27:35;28.40;;;22.27;;
18378;SDS011;27025;51.986;5.984;2023-10-31T13:30:03;32.13;;;22.90;;
18378;SDS011;27025;51.986;5.984;2023-10-31T13:32:29;33.53;;;23.23;;
18378;SDS011;27025;51.986;5.984;2023-10-31T13:34:55;30.37;;;22.40;;
18378;SDS011;27025;51.986;5.984;2023-10-31T13:37:22;30.77;;;22.40;;
18378;SDS011;27025;51.986;5.984;2023-10-31T13:39:50;31.07;;;21.77;;
18378;SDS011;27025;51.986;5.984;2023-10-31T13:42:16;27.33;;;21.53;;
18378;SDS011;27025;51.986;5.984;2023-10-31T13:44:43;25.30;;;20.80;;
18378;SDS011;27025;51.986;5.984;2023-10-31T13:47:12;27.63;;;20.97;;
18378;SDS011;27025;51.986;5.984;2023-10-31T13:49:38;25.50;;;21.47;;
18378;SDS011;27025;51.986;5.984;2023-10-31T13:52:04;25.57;;;20.77;;
18378;SDS011;27025;51.986;5.984;2023-10-31T13:54:31;26.67;;;20.77;;
18378;SDS011;27025;51.986;5.984;2023-10-31T13:56:59;23.63;;;20.60;;
18378;SDS011;27025;51.986;5.984;2023-10-31T13:59:25;23.20;;;20.70;;
18378;SDS011;27025;51.986;5.984;2023-10-31T14:01:52;24.73;;;20.93;;
18378;SDS011;27025;51.986;5.984;2023-10-31T14:04:21;25.70;;;20.10;;
18378;SDS011;27025;51.986;5.984;2023-10-31T14:06:47;22.23;;;18.73;;
18378;SDS011;27025;51.986;5.984;2023-10-31T14:09:14;22.47;;;18.27;;
18378;SDS011;27025;51.986;5.984;2023-10-31T14:11:40;24.52;;;20.00;;
18378;SDS011;27025;51.986;5.984;2023-10-31T14:14:07;21.15;;;18.95;;
18378;SDS011;27025;51.986;5.984;2023-10-31T14:16:38;19.87;;;17.70;;
18378;SDS011;27025;51.986;5.984;2023-10-31T14:19:08;19.13;;;17.15;;
18378;SDS011;27025;51.986;5.984;2023-10-31T14:21:34;18.63;;;16.73;;
18378;SDS011;27025;51.986;5.984;2023-10-31T14:24:06;18.20;;;16.27;;
18378;SDS011;27025;51.986;5.984;2023-10-31T14:40:52;19.25;;;17.35;;
18378;SDS011;27025;51.986;5.984;2023-10-31T14:43:18;19.80;;;17.80;;
18378;SDS011;27025;51.986;5.984;2023-10-31T14:45:44;20.20;;;18.20;;
18378;SDS011;27025;51.986;5.984;2023-10-31T14:48:10;19.63;;;17.83;;
18378;SDS011;27025;51.986;5.984;2023-10-31T14:50:36;20.58;;;17.42;;
18378;SDS011;27025;51.986;5.984;2023-10-31T14:53:04;19.90;;;17.90;;
18378;SDS011;27025;51.986;5.984;2023-10-31T14:55:30;20.00;;;17.57;;
18378;SDS011;27025;51.986;5.984;2023-10-31T14:57:56;19.27;;;17.23;;
18378;SDS011;27025;51.986;5.984;2023-10-31T15:00:22;20.40;;;17.27;;
18378;SDS011;27025;51.986;5.984;2023-10-31T15:02:48;19.05;;;17.02;;
18378;SDS011;27025;51.986;5.984;2023-10-31T15:05:14;15.32;;;13.38;;
18378;SDS011;27025;51.986;5.984;2023-10-31T15:07:40;12.30;;;10.98;;
18378;SDS011;27025;51.986;5.984;2023-10-31T15:10:07;12.53;;;11.23;;
18378;SDS011;27025;51.986;5.984;2023-10-31T15:12:33;11.90;;;10.43;;
18378;SDS011;27025;51.986;5.984;2023-10-31T15:14:59;11.57;;;9.60;;
18378;SDS011;27025;51.986;5.984;2023-10-31T15:17:25;11.93;;;9.40;;
18378;SDS011;27025;51.986;5.984;2023-10-31T15:19:51;10.25;;;9.10;;
18378;SDS011;27025;51.986;5.984;2023-10-31T15:22:17;10.15;;;8.48;;
18378;SDS011;27025;51.986;5.984;2023-10-31T15:24:43;9.70;;;7.03;;
18378;SDS011;27025;51.986;5.984;2023-10-31T15:27:09;8.77;;;6.30;;
18378;SDS011;27025;51.986;5.984;2023-10-31T15:29:38;8.30;;;6.67;;
18378;SDS011;27025;51.986;5.984;2023-10-31T15:32:04;10.27;;;6.83;;
18378;SDS011;27025;51.986;5.984;2023-10-31T15:34:30;9.93;;;6.43;;
18378;SDS011;27025;51.986;5.984;2023-10-31T15:36:56;7.00;;;5.77;;
18378;SDS011;27025;51.986;5.984;2023-10-31T15:39:22;7.97;;;6.27;;
18378;SDS011;27025;51.986;5.984;2023-10-31T15:41:48;10.85;;;6.97;;
18378;SDS011;27025;51.986;5.984;2023-10-31T15:44:14;11.03;;;6.20;;
18378;SDS011;27025;51.986;5.984;2023-10-31T15:46:40;9.30;;;6.65;;
18378;SDS011;27025;51.986;5.984;2023-10-31T15:49:06;11.90;;;7.90;;
18378;SDS011;27025;51.986;5.984;2023-10-31T15:51:32;14.47;;;7.97;;
18378;SDS011;27025;51.986;5.984;2023-10-31T15:53:58;11.33;;;8.73;;
18378;SDS011;27025;51.986;5.984;2023-10-31T15:56:25;12.07;;;8.07;;
18378;SDS011;27025;51.986;5.984;2023-10-31T15:58:51;11.90;;;8.20;;
18378;SDS011;27025;51.986;5.984;2023-10-31T16:01:17;9.83;;;8.67;;
18378;SDS011;27025;51.986;5.984;2023-10-31T16:03:43;11.17;;;8.97;;
18378;SDS011;27025;51.986;5.984;2023-10-31T16:06:09;12.93;;;9.73;;
18378;SDS011;27025;51.986;5.984;2023-10-31T16:08:35;13.30;;;9.03;;
18378;SDS011;27025;51.986;5.984;2023-10-31T16:11:05;11.53;;;9.60;;
18378;SDS011;27025;51.986;5.984;2023-10-31T16:13:31;11.47;;;8.93;;
18378;SDS011;27025;51.986;5.984;2023-10-31T16:15:57;10.00;;;8.77;;
18378;SDS011;27025;51.986;5.984;2023-10-31T16:18:23;11.73;;;9.20;;
18378;SDS011;27025;51.986;5.984;2023-10-31T16:20:49;14.10;;;9.47;;
18378;SDS011;27025;51.986;5.984;2023-10-31T16:23:15;12.27;;;9.67;;
18378;SDS011;27025;51.986;5.984;2023-10-31T16:25:44;13.30;;;9.87;;
18378;SDS011;27025;51.986;5.984;2023-10-31T16:28:10;11.07;;;9.33;;
18378;SDS011;27025;51.986;5.984;2023-10-31T16:30:37;11.87;;;9.33;;
18378;SDS011;27025;51.986;5.984;2023-10-31T16:33:03;13.33;;;9.87;;
18378;SDS011;27025;51.986;5.984;2023-10-31T16:35:29;13.90;;;10.47;;
18378;SDS011;27025;51.986;5.984;2023-10-31T16:37:55;14.13;;;10.77;;
18378;SDS011;27025;51.986;5.984;2023-10-31T16:40:21;12.73;;;10.67;;
18378;SDS011;27025;51.986;5.984;2023-10-31T16:42:49;13.67;;;11.13;;
18378;SDS011;27025;51.986;5.984;2023-10-31T16:45:15;15.20;;;11.50;;